Time;durP1;ratioP1;P1;durP2;ratioP2;P2;SDS_P1;SDS_P2;PMS_P1;PMS_P2;Temp;Humidity;BMP_temperature;BMP_pressure;BME280_temperature;BME280_humidity;BME280_pressure;Samples;Min_cycle;Max_cycle;Signal;HPM_P1;HPM_P2
2023/04/04 00:00:15;;;;;;;4.53;1.85;;;1.40;1.00;;;;;;4908377;29;20249;-77
2023/04/04 00:02:42;;;;;;;5.47;2.75;;;1.30;1.00;;;;;;4911460;29;20734;-76
2023/04/04 00:05:09;;;;;;;4.75;2.35;;;1.40;1.00;;;;;;4909497;28;20269;-77
2023/04/04 00:07:36;;;;;;;9.05;2.85;;;1.40;1.00;;;;;;4912828;29;20396;-76
2023/04/04 00:10:06;;;;;;;5.05;2.10;;;1.30;1.00;;;;;;4916204;29;20241;-76
2023/04/04 00:12:33;;;;;;;3.80;2.10;;;1.30;1.00;;;;;;4909594;29;20238;-76
2023/04/04 00:15:00;;;;;;;6.75;2.70;;;1.30;1.00;;;;;;4916931;29;20242;-77
2023/04/04 00:17:27;;;;;;;3.35;2.40;;;1.30;1.00;;;;;;4908602;29;20333;-77
2023/04/04 00:19:56;;;;;;;4.00;2.65;;;1.30;1.00;;;;;;4897579;29;20245;-78
2023/04/04 00:22:23;;;;;;;4.40;2.40;;;1.20;1.00;;;;;;4909564;29;20249;-78
2023/04/04 00:24:50;;;;;;;7.07;2.95;;;1.30;1.00;;;;;;4911459;29;20242;-77
2023/04/04 00:27:20;;;;;;;4.45;2.30;;;1.20;1.00;;;;;;4914824;29;20302;-76
2023/04/04 00:29:47;;;;;;;5.93;2.15;;;1.20;1.00;;;;;;4919796;29;20329;-76
2023/04/04 00:32:16;;;;;;;3.85;2.53;;;1.10;1.00;;;;;;4912852;29;20285;-77
2023/04/04 00:34:43;;;;;;;4.10;2.45;;;1.20;1.00;;;;;;4915338;29;20246;-76
2023/04/04 00:37:11;;;;;;;3.38;2.20;;;1.20;1.00;;;;;;4920173;29;21089;-77
2023/04/04 00:39:38;;;;;;;6.28;2.50;;;1.00;1.00;;;;;;4915360;29;20238;-77
2023/04/04 00:42:07;;;;;;;2.70;1.90;;;1.10;1.00;;;;;;4909636;29;20242;-76
2023/04/04 00:44:35;;;;;;;5.50;1.83;;;1.10;1.00;;;;;;4912244;29;20337;-76
2023/04/04 00:47:02;;;;;;;5.32;2.55;;;1.10;1.00;;;;;;4915623;29;20250;-77
2023/04/04 00:49:29;;;;;;;6.30;2.03;;;1.10;1.00;;;;;;4907075;29;20275;-77
2023/04/04 00:51:56;;;;;;;5.28;2.40;;;1.20;1.00;;;;;;4899184;29;21161;-77
2023/04/04 00:54:23;;;;;;;3.50;3.13;;;1.20;1.00;;;;;;4912727;29;20337;-76
2023/04/04 00:56:53;;;;;;;4.68;2.20;;;1.20;1.00;;;;;;4913262;29;20278;-77
2023/04/04 00:59:21;;;;;;;4.15;2.45;;;1.20;1.00;;;;;;4911006;29;21181;-77
2023/04/04 01:04:23;;;;;;;5.15;2.60;;;1.20;1.00;;;;;;4925778;28;20249;-82
2023/04/04 01:06:53;;;;;;;4.55;2.17;;;1.10;1.00;;;;;;4924758;28;20244;-82
2023/04/04 01:09:21;;;;;;;4.82;2.42;;;1.20;1.00;;;;;;4927034;28;20274;-82
2023/04/04 01:11:53;;;;;;;4.13;2.47;;;1.10;1.00;;;;;;4929992;28;20246;-82
2023/04/04 01:14:22;;;;;;;5.20;2.38;;;1.10;1.00;;;;;;4928251;28;21269;-81
2023/04/04 01:16:54;;;;;;;4.80;2.42;;;1.00;1.00;;;;;;4928913;28;20242;-82
2023/04/04 01:19:34;;;;;;;7.32;2.90;;;1.00;1.00;;;;;;4917391;28;20721;-83
2023/04/04 01:22:02;;;;;;;5.03;2.03;;;1.00;1.00;;;;;;4911102;28;20238;-82
2023/04/04 01:24:36;;;;;;;6.07;2.30;;;1.10;1.00;;;;;;4925659;28;20249;-83
2023/04/04 01:27:05;;;;;;;3.65;1.90;;;1.00;1.00;;;;;;4911716;28;20257;-82
2023/04/04 01:29:32;;;;;;;6.30;2.20;;;1.00;1.00;;;;;;4930341;28;20241;-82
2023/04/04 01:32:06;;;;;;;3.53;2.08;;;0.90;1.00;;;;;;4907858;28;20359;-82
2023/04/04 01:34:47;;;;;;;6.32;2.53;;;0.90;1.00;;;;;;4912116;23;21000;-82
2023/04/04 01:37:23;;;;;;;8.90;3.15;;;0.80;1.00;;;;;;4890118;29;20719;-81
2023/04/04 01:40:00;;;;;;;5.55;2.72;;;0.80;1.00;;;;;;4888631;29;20332;-82
2023/04/04 01:42:31;;;;;;;3.50;2.53;;;0.70;1.00;;;;;;4886870;29;20278;-82
2023/04/04 01:45:01;;;;;;;4.72;2.60;;;0.80;1.00;;;;;;4891221;29;20696;-81
2023/04/04 01:47:31;;;;;;;6.68;2.88;;;0.70;1.00;;;;;;4888743;29;20258;-81
2023/04/04 01:50:00;;;;;;;4.57;2.53;;;0.70;1.00;;;;;;4897237;29;20745;-82
2023/04/04 01:52:35;;;;;;;5.72;2.63;;;0.70;1.00;;;;;;4878726;29;20723;-81
2023/04/04 01:55:04;;;;;;;7.50;2.70;;;0.70;1.00;;;;;;4891227;29;20364;-82
2023/04/04 01:57:38;;;;;;;6.50;2.97;;;0.70;1.00;;;;;;4870813;29;22168;-81
2023/04/04 02:00:09;;;;;;;8.55;2.47;;;0.70;1.00;;;;;;4887069;29;20253;-81
2023/04/04 02:02:37;;;;;;;5.13;2.40;;;0.60;1.00;;;;;;4881052;29;20266;-81
2023/04/04 02:05:05;;;;;;;4.85;2.75;;;0.60;1.00;;;;;;4892305;29;21821;-82
2023/04/04 02:07:32;;;;;;;6.60;3.00;;;0.60;1.00;;;;;;4859045;29;20329;-80
2023/04/04 02:10:00;;;;;;;9.20;3.33;;;0.50;1.00;;;;;;4895554;29;20235;-81
2023/04/04 02:12:27;;;;;;;8.05;3.17;;;0.50;1.00;;;;;;4871835;29;21220;-81
2023/04/04 02:14:59;;;;;;;5.80;3.08;;;0.60;1.00;;;;;;4905486;29;21000;-82
2023/04/04 02:17:27;;;;;;;9.02;3.05;;;0.60;1.00;;;;;;4895431;29;22972;-83
2023/04/04 02:19:56;;;;;;;8.18;4.03;;;0.50;1.00;;;;;;4893243;29;20240;-81
2023/04/04 02:22:27;;;;;;;9.25;3.70;;;0.50;1.00;;;;;;4878500;29;20274;-83
2023/04/04 02:24:56;;;;;;;10.25;4.68;;;0.50;1.00;;;;;;4908653;29;20258;-83
2023/04/04 02:27:26;;;;;;;7.72;3.75;;;0.40;1.00;;;;;;4907814;29;20242;-80
2023/04/04 02:30:05;;;;;;;16.60;5.70;;;0.40;1.00;;;;;;4889904;29;20231;-81
2023/04/04 02:32:38;;;;;;;8.02;4.00;;;0.40;1.00;;;;;;4901889;29;20263;-82
2023/04/04 02:35:10;;;;;;;15.63;4.80;;;0.40;1.00;;;;;;4895854;29;20763;-82
2023/04/04 02:37:39;;;;;;;9.90;4.22;;;0.40;1.00;;;;;;4842694;29;20245;-82
2023/04/04 02:40:13;;;;;;;10.05;4.00;;;0.40;1.00;;;;;;4882442;29;20741;-83
2023/04/04 02:42:51;;;;;;;8.30;4.80;;;0.30;1.00;;;;;;4889504;29;20768;-83
2023/04/04 02:45:29;;;;;;;11.00;5.10;;;0.30;1.00;;;;;;4890380;29;20234;-83
2023/04/04 02:47:57;;;;;;;8.82;4.85;;;0.30;1.00;;;;;;4889688;29;20358;-82
2023/04/04 02:50:26;;;;;;;10.65;5.68;;;0.30;1.00;;;;;;4887990;29;21132;-81
2023/04/04 02:53:01;;;;;;;11.43;4.18;;;0.20;1.00;;;;;;4879221;29;20734;-82
2023/04/04 02:55:29;;;;;;;10.85;4.88;;;0.20;1.00;;;;;;4878915;29;20315;-82
2023/04/04 02:57:56;;;;;;;8.18;4.43;;;0.20;1.00;;;;;;4887769;29;20247;-82
2023/04/04 03:00:37;;;;;;;9.07;4.10;;;0.20;1.00;;;;;;4888491;29;20245;-82
2023/04/04 03:03:05;;;;;;;8.43;3.80;;;0.20;1.00;;;;;;4889476;29;20235;-82
2023/04/04 03:05:35;;;;;;;11.35;4.50;;;0.20;1.00;;;;;;4883390;29;20243;-82
2023/04/04 03:08:05;;;;;;;7.93;4.30;;;0.20;1.00;;;;;;4877622;29;20329;-83
2023/04/04 03:10:33;;;;;;;11.07;4.50;;;0.20;1.00;;;;;;4864219;29;20254;-83
2023/04/04 03:13:01;;;;;;;10.35;4.70;;;0.20;1.00;;;;;;4873192;29;20238;-83
2023/04/04 03:15:34;;;;;;;13.18;5.72;;;0.20;1.00;;;;;;4890144;29;21082;-83
2023/04/04 03:18:03;;;;;;;10.15;5.32;;;0.20;1.00;;;;;;4889821;29;20365;-83
2023/04/04 03:20:32;;;;;;;8.73;4.65;;;0.20;1.00;;;;;;4885905;29;20250;-82
2023/04/04 03:23:07;;;;;;;9.55;5.28;;;0.20;1.00;;;;;;4885642;29;20335;-82
2023/04/04 03:25:35;;;;;;;11.02;4.18;;;0.20;1.00;;;;;;4885980;29;20249;-83
2023/04/04 03:28:15;;;;;;;10.40;4.88;;;0.10;1.00;;;;;;4885657;29;20749;-84
2023/04/04 03:30:49;;;;;;;12.07;5.22;;;0.10;1.00;;;;;;4868809;29;20246;-81
2023/04/04 03:33:18;;;;;;;14.73;7.72;;;0.10;1.00;;;;;;4895192;29;20245;-82
2023/04/04 03:35:47;;;;;;;11.10;4.88;;;0.00;1.00;;;;;;4892059;29;21091;-83
2023/04/04 03:38:15;;;;;;;7.20;4.10;;;0.00;1.00;;;;;;4893180;29;20871;-83
2023/04/04 03:40:45;;;;;;;9.75;4.65;;;0.00;1.00;;;;;;4889933;29;20283;-81
2023/04/04 03:43:17;;;;;;;12.23;5.90;;;0.00;1.00;;;;;;4888908;29;20339;-82
2023/04/04 03:45:55;;;;;;;10.63;5.55;;;0.00;1.00;;;;;;4878008;29;20725;-83
2023/04/04 03:48:23;;;;;;;8.73;4.70;;;0.00;1.00;;;;;;4884551;29;20353;-83
2023/04/04 03:50:50;;;;;;;11.85;4.90;;;0.00;1.00;;;;;;4884203;29;20245;-82
2023/04/04 03:53:17;;;;;;;7.78;4.53;;;0.00;1.00;;;;;;4883848;29;20250;-82
2023/04/04 03:55:44;;;;;;;11.63;4.85;;;0.00;1.00;;;;;;4877803;29;20329;-83
2023/04/04 03:58:13;;;;;;;10.35;5.00;;;0.00;1.00;;;;;;4886336;29;20238;-82
2023/04/04 04:04:04;;;;;;;12.10;4.40;;;-0.10;1.00;;;;;;4949138;23;20337;-81
2023/04/04 04:06:30;;;;;;;11.20;4.65;;;-0.10;1.00;;;;;;4910125;29;20325;-80
2023/04/04 04:08:58;;;;;;;10.43;4.28;;;-0.10;1.00;;;;;;4916742;29;20305;-78
2023/04/04 04:11:25;;;;;;;9.93;4.47;;;-0.10;1.00;;;;;;4912712;29;21017;-79
2023/04/04 04:13:52;;;;;;;9.75;4.88;;;-0.20;1.00;;;;;;4917718;29;20973;-80
2023/04/04 04:16:20;;;;;;;8.10;4.75;;;-0.10;1.00;;;;;;4913539;29;20260;-81
2023/04/04 04:18:48;;;;;;;9.60;5.22;;;-0.10;1.00;;;;;;4914818;29;20274;-81
2023/04/04 04:21:16;;;;;;;10.77;5.10;;;-0.10;1.00;;;;;;4920114;29;20226;-79
2023/04/04 04:23:43;;;;;;;7.00;4.30;;;-0.20;1.00;;;;;;4918394;29;20305;-80
2023/04/04 04:26:11;;;;;;;11.73;4.18;;;-0.20;1.00;;;;;;4919060;29;20246;-80
2023/04/04 04:28:37;;;;;;;10.35;5.43;;;-0.20;1.00;;;;;;4921125;29;20335;-80
2023/04/04 04:31:06;;;;;;;7.85;3.60;;;-0.20;1.00;;;;;;4917163;29;20329;-81
2023/04/04 04:33:33;;;;;;;7.60;3.90;;;-0.20;1.00;;;;;;4922421;29;20329;-80
2023/04/04 04:36:01;;;;;;;9.00;4.03;;;-0.20;1.00;;;;;;4920237;29;20246;-80
2023/04/04 04:38:30;;;;;;;10.10;4.20;;;-0.20;1.00;;;;;;4915900;29;20254;-80
2023/04/04 04:40:58;;;;;;;11.65;4.78;;;-0.20;1.00;;;;;;4910284;29;20403;-79
2023/04/04 04:43:25;;;;;;;9.27;4.82;;;-0.20;1.00;;;;;;4897407;29;20286;-80
2023/04/04 04:45:52;;;;;;;8.30;5.03;;;-0.20;1.00;;;;;;4907594;29;21044;-80
2023/04/04 04:48:19;;;;;;;8.90;5.38;;;-0.20;1.00;;;;;;4915166;29;20238;-81
2023/04/04 04:50:46;;;;;;;9.23;4.80;;;-0.20;1.00;;;;;;4903140;29;20267;-81
2023/04/04 04:53:21;;;;;;;12.45;4.80;;;-0.20;1.00;;;;;;4908438;29;20245;-80
2023/04/04 04:55:51;;;;;;;11.80;4.38;;;-0.10;1.00;;;;;;4909723;29;20266;-82
2023/04/04 04:58:20;;;;;;;10.88;5.22;;;-0.20;1.00;;;;;;4913683;29;20395;-82
2023/04/04 05:00:47;;;;;;;10.73;4.55;;;-0.20;1.00;;;;;;4910571;29;21096;-80
2023/04/04 05:03:14;;;;;;;10.63;4.32;;;-0.20;1.00;;;;;;4913625;29;20238;-83
2023/04/04 05:05:42;;;;;;;7.90;4.43;;;-0.20;1.00;;;;;;4900204;29;20774;-81
2023/04/04 05:08:10;;;;;;;8.43;3.78;;;-0.10;1.00;;;;;;4904434;29;21093;-83
2023/04/04 05:10:37;;;;;;;8.82;5.15;;;-0.10;1.00;;;;;;4907043;29;20289;-82
2023/04/04 05:13:05;;;;;;;9.82;4.18;;;-0.10;1.00;;;;;;4907022;29;20238;-82
2023/04/04 05:15:33;;;;;;;10.73;4.10;;;-0.10;1.00;;;;;;4899977;29;20238;-82
2023/04/04 05:18:00;;;;;;;9.57;4.70;;;0.00;1.00;;;;;;4909510;29;20234;-83
2023/04/04 05:20:27;;;;;;;9.75;4.40;;;0.00;1.00;;;;;;4907410;29;20269;-82
2023/04/04 05:22:54;;;;;;;8.80;4.45;;;0.00;1.00;;;;;;4911612;29;20353;-79
2023/04/04 05:25:21;;;;;;;8.85;4.43;;;0.10;1.00;;;;;;4909906;29;20264;-80
2023/04/04 05:27:49;;;;;;;7.15;4.22;;;0.10;1.00;;;;;;4912581;29;20273;-80
2023/04/04 05:30:17;;;;;;;6.65;3.83;;;0.10;1.00;;;;;;4900218;29;20273;-79
2023/04/04 05:32:45;;;;;;;6.95;3.80;;;0.30;1.00;;;;;;4908201;29;20242;-79
2023/04/04 05:35:13;;;;;;;8.43;4.15;;;0.40;1.00;;;;;;4905924;29;20302;-79
2023/04/04 05:37:40;;;;;;;10.20;4.55;;;0.40;1.00;;;;;;4911503;29;20318;-79
2023/04/04 05:40:10;;;;;;;5.97;3.95;;;0.50;1.00;;;;;;4904625;28;21190;-81
2023/04/04 05:42:37;;;;;;;7.50;4.10;;;0.50;1.00;;;;;;4905898;29;20238;-77
2023/04/04 05:45:05;;;;;;;7.57;4.40;;;0.60;1.00;;;;;;4899268;29;20824;-77
2023/04/04 05:47:33;;;;;;;9.32;5.28;;;0.70;1.00;;;;;;4904403;29;20242;-77
2023/04/04 05:50:00;;;;;;;8.82;4.38;;;0.80;1.00;;;;;;4904069;29;20305;-78
2023/04/04 05:52:27;;;;;;;8.50;4.53;;;0.90;1.00;;;;;;4890004;29;20239;-78
2023/04/04 05:54:54;;;;;;;8.07;4.22;;;1.00;1.00;;;;;;4897940;29;21138;-78
2023/04/04 05:57:21;;;;;;;14.63;6.00;;;1.00;1.00;;;;;;4902483;29;20368;-78
2023/04/04 05:59:48;;;;;;;8.10;5.05;;;1.10;1.00;;;;;;4904675;29;20529;-80
2023/04/04 06:02:16;;;;;;;10.57;5.03;;;1.20;1.00;;;;;;4909683;29;20277;-79
2023/04/04 06:04:44;;;;;;;8.48;5.18;;;1.30;1.00;;;;;;4893214;29;20244;-79
2023/04/04 06:07:11;;;;;;;10.35;5.03;;;1.40;1.00;;;;;;4904429;29;20246;-78
2023/04/04 06:09:40;;;;;;;8.35;4.80;;;1.40;1.00;;;;;;4897562;29;20894;-79
2023/04/04 06:12:08;;;;;;;7.90;4.93;;;1.40;1.00;;;;;;4897780;29;20315;-80
2023/04/04 06:14:36;;;;;;;11.80;6.00;;;1.50;1.00;;;;;;4910753;29;20238;-79
2023/04/04 06:17:03;;;;;;;6.00;4.43;;;1.60;1.00;;;;;;4911490;29;20342;-79
2023/04/04 06:19:31;;;;;;;11.40;5.80;;;1.70;1.00;;;;;;4913032;29;20254;-79
2023/04/04 06:21:59;;;;;;;12.60;5.15;;;1.70;1.00;;;;;;4908134;29;20245;-80
2023/04/04 06:24:26;;;;;;;12.30;5.95;;;1.90;1.00;;;;;;4903399;29;20253;-79
2023/04/04 06:26:53;;;;;;;8.95;5.60;;;1.90;1.00;;;;;;4907473;29;20324;-80
2023/04/04 06:29:20;;;;;;;7.88;4.93;;;2.00;1.00;;;;;;4907932;29;20394;-79
2023/04/04 06:31:50;;;;;;;9.20;4.40;;;2.10;1.00;;;;;;4907475;29;20294;-77
2023/04/04 06:34:17;;;;;;;11.63;4.32;;;2.10;1.00;;;;;;4904299;29;20246;-78
2023/04/04 06:36:44;;;;;;;11.07;6.40;;;2.20;1.00;;;;;;4907041;29;20246;-77
2023/04/04 06:39:13;;;;;;;10.55;5.03;;;2.30;1.00;;;;;;4899322;29;20296;-79
2023/04/04 06:41:40;;;;;;;7.95;4.35;;;2.40;1.00;;;;;;4902284;29;20332;-80
2023/04/04 06:44:07;;;;;;;5.72;3.67;;;2.40;1.00;;;;;;4905852;29;20245;-79
2023/04/04 06:46:36;;;;;;;7.47;4.43;;;2.50;1.00;;;;;;4908181;29;20298;-79
2023/04/04 06:49:03;;;;;;;9.07;4.30;;;2.70;1.00;;;;;;4909294;29;20250;-80
2023/04/04 06:51:30;;;;;;;9.15;3.70;;;2.70;1.00;;;;;;4910294;29;20242;-80
2023/04/04 06:53:57;;;;;;;5.78;3.50;;;2.90;1.00;;;;;;4905229;29;20253;-81
2023/04/04 06:56:29;;;;;;;8.88;3.40;;;3.00;1.00;;;;;;4911615;29;20314;-81
2023/04/04 06:58:56;;;;;;;10.30;4.47;;;3.10;1.00;;;;;;4909132;29;20333;-80
2023/04/04 07:01:23;;;;;;;9.95;5.68;;;3.20;1.00;;;;;;4904429;29;20390;-82
2023/04/04 07:03:56;;;;;;;9.98;4.25;;;3.30;1.00;;;;;;4904203;29;20246;-81
2023/04/04 07:06:25;;;;;;;7.63;3.22;;;3.30;1.00;;;;;;4905863;29;20245;-81
2023/04/04 07:08:56;;;;;;;9.07;3.60;;;3.40;1.00;;;;;;4899301;29;20272;-79
2023/04/04 07:11:26;;;;;;;5.85;3.35;;;3.50;1.00;;;;;;4903356;29;21018;-80
2023/04/04 07:13:53;;;;;;;8.23;3.20;;;3.60;1.00;;;;;;4905967;29;20242;-81
2023/04/04 07:16:20;;;;;;;7.35;3.45;;;3.60;1.00;;;;;;4904238;29;20247;-80
2023/04/04 07:18:48;;;;;;;9.65;3.30;;;3.80;1.00;;;;;;4905193;29;22369;-80
2023/04/04 07:21:16;;;;;;;7.90;3.40;;;3.80;1.00;;;;;;4899956;29;20242;-80
2023/04/04 07:23:43;;;;;;;7.40;3.90;;;3.90;1.00;;;;;;4909797;29;20667;-81
2023/04/04 07:26:10;;;;;;;7.65;3.42;;;4.00;1.00;;;;;;4915070;29;20914;-82
2023/04/04 07:28:42;;;;;;;6.93;3.13;;;4.10;1.00;;;;;;4905166;29;20238;-81
2023/04/04 07:31:09;;;;;;;9.00;4.47;;;4.30;1.00;;;;;;4905121;29;20234;-82
2023/04/04 07:33:36;;;;;;;4.15;2.42;;;4.50;1.00;;;;;;4909397;29;20254;-80
2023/04/04 07:36:03;;;;;;;7.05;2.95;;;4.50;1.00;;;;;;4911757;29;20250;-81
2023/04/04 07:38:31;;;;;;;4.88;2.85;;;4.50;1.00;;;;;;4905571;29;21299;-81
2023/04/04 07:40:58;;;;;;;8.30;3.00;;;4.60;1.00;;;;;;4910723;29;20242;-80
2023/04/04 07:43:26;;;;;;;11.60;5.45;;;4.70;1.00;;;;;;4908800;29;20252;-80
2023/04/04 07:45:55;;;;;;;5.18;2.60;;;4.80;1.00;;;;;;4896385;29;20966;-82
2023/04/04 07:48:24;;;;;;;9.27;3.55;;;4.90;1.00;;;;;;4899023;29;20878;-79
2023/04/04 07:50:52;;;;;;;6.90;2.90;;;4.90;1.00;;;;;;4905805;29;20994;-80
2023/04/04 07:53:20;;;;;;;6.50;2.28;;;5.00;1.00;;;;;;4914207;29;20320;-80
2023/04/04 07:55:47;;;;;;;4.78;1.73;;;5.20;1.00;;;;;;4913963;29;20240;-80
2023/04/04 07:58:15;;;;;;;5.78;2.15;;;5.30;1.00;;;;;;4908022;29;20298;-80
2023/04/04 08:00:45;;;;;;;4.32;2.08;;;5.20;1.00;;;;;;4906548;29;20267;-84
2023/04/04 08:03:18;;;;;;;6.07;3.28;;;5.30;1.00;;;;;;4903282;29;20249;-79
2023/04/04 08:05:45;;;;;;;2.53;1.65;;;5.40;1.00;;;;;;4910241;29;20241;-79
2023/04/04 08:08:12;;;;;;;25.00;12.18;;;5.50;1.00;;;;;;4911578;29;20246;-80
2023/04/04 08:10:39;;;;;;;10.65;3.45;;;5.40;1.00;;;;;;4915102;29;20230;-80
2023/04/04 08:13:08;;;;;;;5.45;2.25;;;5.50;1.00;;;;;;4911030;29;20265;-81
2023/04/04 08:15:36;;;;;;;4.03;2.45;;;5.60;1.00;;;;;;4911805;29;20268;-79
2023/04/04 08:18:03;;;;;;;7.28;4.35;;;5.80;1.00;;;;;;4909169;29;20321;-79
2023/04/04 08:20:31;;;;;;;6.28;2.70;;;5.80;1.00;;;;;;4902646;29;21195;-80
2023/04/04 08:22:58;;;;;;;5.47;2.40;;;5.80;1.00;;;;;;4904423;29;20317;-81
2023/04/04 08:25:25;;;;;;;4.70;2.30;;;5.80;1.00;;;;;;4916452;29;20263;-79
2023/04/04 08:27:52;;;;;;;5.50;2.40;;;5.80;1.00;;;;;;4911638;29;20258;-80
2023/04/04 08:30:20;;;;;;;5.82;3.40;;;5.90;1.00;;;;;;4911393;29;20244;-81
2023/04/04 08:32:47;;;;;;;6.50;3.03;;;6.10;1.00;;;;;;4912672;29;20321;-81
2023/04/04 08:35:17;;;;;;;3.30;2.40;;;6.30;1.00;;;;;;4906687;29;20248;-80
2023/04/04 08:37:47;;;;;;;3.58;2.35;;;6.40;1.00;;;;;;4907285;29;20321;-80
2023/04/04 08:40:18;;;;;;;2.80;1.90;;;6.50;1.00;;;;;;4906324;29;20247;-80
2023/04/04 08:42:45;;;;;;;5.07;2.90;;;6.60;1.00;;;;;;4908948;29;20293;-80
2023/04/04 08:45:17;;;;;;;5.00;2.80;;;6.60;1.00;;;;;;4910354;29;20244;-80
2023/04/04 08:47:48;;;;;;;4.32;2.97;;;6.70;1.00;;;;;;4912570;29;20242;-79
2023/04/04 08:50:17;;;;;;;4.80;2.55;;;6.70;1.00;;;;;;4908212;29;20243;-79
2023/04/04 08:52:48;;;;;;;5.72;2.42;;;6.90;1.00;;;;;;4900710;29;20254;-77
2023/04/04 08:55:16;;;;;;;4.57;2.15;;;7.00;1.00;;;;;;4914050;29;20436;-80
2023/04/04 08:57:43;;;;;;;7.95;2.75;;;7.20;1.00;;;;;;4915208;29;20712;-80
2023/04/04 09:00:11;;;;;;;4.68;2.30;;;7.30;1.00;;;;;;4913289;29;20246;-78
2023/04/04 09:02:52;;;;;;;5.90;2.80;;;7.30;1.00;;;;;;4911601;29;20253;-80
2023/04/04 09:05:20;;;;;;;4.80;2.88;;;7.40;1.00;;;;;;4913973;29;21297;-80
2023/04/04 09:07:51;;;;;;;3.60;2.20;;;7.60;1.00;;;;;;4914238;29;20331;-79
2023/04/04 09:10:19;;;;;;;5.80;1.90;;;7.80;1.00;;;;;;4913404;29;21083;-80
2023/04/04 09:12:48;;;;;;;3.00;2.40;;;8.10;1.00;;;;;;4907985;29;20555;-79
2023/04/04 09:15:16;;;;;;;7.38;2.53;;;8.30;1.00;;;;;;4910135;29;20493;-80
2023/04/04 09:17:43;;;;;;;4.63;2.00;;;8.40;1.00;;;;;;4909263;29;20250;-80
2023/04/04 09:20:48;;;;;;;7.00;2.60;;;8.50;1.00;;;;;;4911921;29;20523;-81
2023/04/04 09:23:19;;;;;;;5.37;2.10;;;8.70;1.00;;;;;;4899920;29;20989;-79
2023/04/04 09:25:48;;;;;;;4.20;1.73;;;9.50;1.00;;;;;;4909129;29;20466;-79
2023/04/04 09:28:17;;;;;;;4.63;3.40;;;10.30;1.00;;;;;;4901885;29;20482;-79
2023/04/04 09:30:45;;;;;;;2.73;1.77;;;11.50;1.00;;;;;;4907499;29;20991;-80
2023/04/04 09:33:14;;;;;;;6.57;2.10;;;13.00;1.00;;;;;;4909573;29;21364;-80
2023/04/04 09:35:45;;;;;;;1.70;1.60;;;14.00;1.00;;;;;;4909457;29;20489;-80
2023/04/04 09:38:14;;;;;;;4.63;1.60;;;15.00;1.00;;;;;;4906392;29;20452;-79
2023/04/04 09:40:44;;;;;;;5.70;2.60;;;15.70;1.00;;;;;;4916131;29;20944;-80
2023/04/04 09:43:14;;;;;;;3.60;2.00;;;15.40;1.00;;;;;;4915403;29;20583;-80
2023/04/04 09:45:46;;;;;;;3.63;2.07;;;14.20;1.00;;;;;;4910046;29;20479;-80
2023/04/04 09:48:13;;;;;;;5.53;2.37;;;14.20;1.00;;;;;;4887395;29;20496;-80
2023/04/04 09:50:51;;;;;;;5.10;2.37;;;13.90;1.00;;;;;;4901700;29;21218;-81
2023/04/04 09:53:19;;;;;;;4.90;2.10;;;13.00;1.00;;;;;;4913807;29;21294;-81
2023/04/04 09:55:52;;;;;;;5.00;1.83;;;12.30;1.00;;;;;;4913584;29;20467;-79
2023/04/04 09:58:25;;;;;;;3.80;2.30;;;11.50;1.00;;;;;;4906131;29;20471;-82
2023/04/04 10:00:55;;;;;;;5.90;2.87;;;11.10;1.00;;;;;;4899533;29;20473;-77
2023/04/04 10:03:23;;;;;;;5.87;2.33;;;11.30;1.00;;;;;;4907560;29;20485;-77
2023/04/04 10:05:59;;;;;;;4.23;2.00;;;11.30;1.00;;;;;;4905315;29;20525;-77
2023/04/04 10:08:28;;;;;;;7.63;2.17;;;11.00;1.00;;;;;;4909658;29;20478;-77
2023/04/04 10:11:00;;;;;;;6.60;2.50;;;10.60;1.00;;;;;;4916216;29;20474;-76
2023/04/04 10:13:29;;;;;;;9.10;4.20;;;10.30;1.00;;;;;;4906174;29;20610;-77
2023/04/04 10:15:57;;;;;;;7.67;2.80;;;10.10;1.00;;;;;;4907574;29;20558;-77
2023/04/04 10:18:25;;;;;;;4.63;2.27;;;10.10;1.00;;;;;;4901877;29;20558;-77
2023/04/04 10:20:54;;;;;;;3.30;2.23;;;11.30;1.00;;;;;;4902349;29;20491;-77
2023/04/04 10:23:24;;;;;;;4.00;2.10;;;14.10;1.00;;;;;;4902616;29;20638;-77
2023/04/04 10:25:51;;;;;;;3.80;2.70;;;15.70;1.00;;;;;;4907022;29;21276;-78
2023/04/04 10:28:20;;;;;;;4.47;1.93;;;17.70;1.00;;;;;;4910698;29;20475;-78
2023/04/04 10:30:53;;;;;;;3.73;1.77;;;19.10;1.00;;;;;;4911738;29;20483;-77
2023/04/04 10:33:27;;;;;;;2.90;1.67;;;19.50;1.00;;;;;;4908816;29;21040;-77
2023/04/04 10:35:58;;;;;;;3.80;2.67;;;19.60;1.00;;;;;;4915036;29;20471;-76
2023/04/04 10:38:29;;;;;;;4.03;1.60;;;19.80;1.00;;;;;;4913636;29;20476;-76
2023/04/04 10:41:00;;;;;;;3.50;1.63;;;18.90;1.00;;;;;;4908145;29;20469;-77
2023/04/04 10:43:32;;;;;;;4.73;1.97;;;18.20;1.00;;;;;;4910579;29;20967;-78
2023/04/04 10:46:08;;;;;;;7.00;2.77;;;17.40;1.00;;;;;;4904763;29;21266;-76
2023/04/04 10:48:36;;;;;;;2.97;1.73;;;17.20;1.00;;;;;;4901405;29;21906;-77
2023/04/04 10:51:07;;;;;;;3.90;1.60;;;18.40;1.00;;;;;;4907186;29;20472;-77
2023/04/04 10:53:36;;;;;;;4.20;2.00;;;18.90;1.00;;;;;;4900958;29;20580;-79
2023/04/04 10:56:03;;;;;;;5.50;2.63;;;20.40;1.00;;;;;;4916235;29;20565;-78
2023/04/04 10:58:31;;;;;;;2.40;1.50;;;21.80;1.00;;;;;;4915749;29;20557;-77
2023/04/04 11:00:59;;;;;;;4.07;2.00;;;22.90;1.00;;;;;;4909587;29;20575;-78
2023/04/04 11:03:26;;;;;;;2.97;1.50;;;23.70;1.00;;;;;;4903404;29;20560;-78
2023/04/04 11:06:00;;;;;;;3.70;1.50;;;24.40;1.00;;;;;;4911081;29;20479;-78
2023/04/04 11:08:29;;;;;;;2.73;1.90;;;24.70;1.00;;;;;;4904321;29;20484;-77
2023/04/04 11:10:57;;;;;;;2.53;1.30;;;24.30;1.00;;;;;;4909174;29;21029;-80
2023/04/04 11:13:28;;;;;;;5.00;1.77;;;22.80;1.00;;;;;;4906501;29;20493;-78
2023/04/04 11:15:58;;;;;;;6.20;2.93;;;20.40;1.00;;;;;;4892293;29;20467;-78
2023/04/04 11:18:47;;;;;;;3.20;1.77;;;18.20;1.00;;;;;;4907137;29;20905;-80
2023/04/04 11:21:18;;;;;;;6.43;2.50;;;16.90;1.00;;;;;;4909253;29;21208;-79
2023/04/04 11:24:13;;;;;;;3.90;1.63;;;16.10;1.00;;;;;;4911804;29;20478;-78
2023/04/04 11:26:44;;;;;;;2.67;1.27;;;15.70;1.00;;;;;;4906994;29;20459;-78
2023/04/04 11:29:22;;;;;;;2.40;1.40;;;17.70;1.00;;;;;;4909004;29;20818;-79
2023/04/04 11:31:52;;;;;;;3.87;1.20;;;20.60;1.00;;;;;;4904829;29;20566;-78
2023/04/04 11:34:33;;;;;;;4.40;2.20;;;22.70;1.00;;;;;;4904179;29;20559;-80
2023/04/04 11:37:17;;;;;;;6.30;2.33;;;22.90;1.00;;;;;;4906363;29;20565;-78
2023/04/04 11:39:55;;;;;;;4.60;1.70;;;20.70;1.00;;;;;;4911216;29;20479;-76
2023/04/04 11:42:23;;;;;;;3.40;2.10;;;18.70;1.00;;;;;;4899829;29;20472;-79
2023/04/04 11:45:04;;;;;;;3.30;1.73;;;17.90;1.00;;;;;;4908127;29;20473;-79
2023/04/04 11:47:32;;;;;;;2.47;1.20;;;19.40;1.00;;;;;;4912494;29;20446;-78
2023/04/04 11:50:01;;;;;;;4.10;1.80;;;20.60;1.00;;;;;;4909981;29;20496;-77
2023/04/04 11:52:34;;;;;;;5.17;2.43;;;20.20;1.00;;;;;;4911164;29;20525;-78
2023/04/04 11:55:03;;;;;;;4.13;2.57;;;20.50;1.00;;;;;;4918666;29;20454;-78
2023/04/04 11:57:30;;;;;;;2.17;1.97;;;20.20;1.00;;;;;;4912079;29;20514;-77
2023/04/04 11:59:58;;;;;;;2.03;1.83;;;18.60;1.00;;;;;;4915606;29;20459;-78
2023/04/04 12:02:30;;;;;;;4.67;2.07;;;17.20;1.00;;;;;;4904867;29;20491;-78
2023/04/04 12:05:00;;;;;;;5.87;2.67;;;16.00;1.00;;;;;;4907372;29;20506;-76
2023/04/04 12:07:29;;;;;;;5.13;1.83;;;16.30;1.00;;;;;;4909786;29;20466;-80
2023/04/04 12:09:57;;;;;;;3.13;1.67;;;18.60;1.00;;;;;;4892761;29;20474;-79
2023/04/04 12:12:27;;;;;;;3.50;2.63;;;20.80;1.00;;;;;;4904675;29;23169;-78
2023/04/04 12:14:54;;;;;;;4.37;2.10;;;21.20;1.00;;;;;;4911997;29;20500;-76
2023/04/04 12:17:22;;;;;;;2.07;1.87;;;19.50;1.00;;;;;;4903151;29;20472;-76
2023/04/04 12:19:49;;;;;;;3.77;1.77;;;18.40;1.00;;;;;;4904483;29;20551;-76
2023/04/04 12:22:18;;;;;;;2.70;1.37;;;18.40;1.00;;;;;;4907263;29;20466;-77
2023/04/04 12:24:45;;;;;;;3.20;2.27;;;19.90;1.00;;;;;;4915293;29;20514;-78
2023/04/04 12:27:12;;;;;;;4.60;1.47;;;20.60;1.00;;;;;;4914112;29;20463;-77
2023/04/04 12:29:40;;;;;;;3.50;1.57;;;19.60;1.00;;;;;;4910489;29;20474;-76
2023/04/04 12:32:13;;;;;;;4.47;3.00;;;18.30;1.00;;;;;;4897110;29;20814;-77
2023/04/04 12:34:43;;;;;;;3.93;2.20;;;17.10;1.00;;;;;;4908563;29;21231;-79
2023/04/04 12:37:15;;;;;;;3.60;2.40;;;16.00;1.00;;;;;;4911219;29;20459;-79
2023/04/04 12:39:51;;;;;;;3.50;1.67;;;14.80;1.00;;;;;;4911845;29;20574;-79
2023/04/04 12:42:22;;;;;;;4.50;2.30;;;14.10;1.00;;;;;;4910335;29;20470;-78
2023/04/04 12:44:53;;;;;;;3.47;2.47;;;13.90;1.00;;;;;;4911079;29;20500;-78
2023/04/04 12:47:22;;;;;;;19.67;6.00;;;14.20;1.00;;;;;;4912012;29;20454;-78
2023/04/04 12:49:53;;;;;;;2.27;2.03;;;15.00;1.00;;;;;;4909130;29;20551;-78
2023/04/04 12:52:21;;;;;;;2.87;1.90;;;14.90;1.00;;;;;;4907741;29;20470;-79
2023/04/04 12:54:51;;;;;;;10.73;2.80;;;14.90;1.00;;;;;;4904998;29;20469;-78
2023/04/04 12:57:20;;;;;;;7.53;2.40;;;15.60;1.00;;;;;;4906357;29;20468;-80
2023/04/04 12:59:50;;;;;;;2.87;1.30;;;15.30;1.00;;;;;;4911224;29;20554;-78
2023/04/04 13:02:19;;;;;;;3.23;1.73;;;14.80;1.00;;;;;;4913372;29;20473;-79
2023/04/04 13:04:48;;;;;;;4.13;1.70;;;15.30;1.00;;;;;;4910079;29;20501;-76
2023/04/04 13:07:22;;;;;;;2.23;1.63;;;17.40;1.00;;;;;;4909843;29;20472;-80
2023/04/04 13:09:56;;;;;;;2.33;1.73;;;19.00;1.00;;;;;;4915782;29;20559;-79
2023/04/04 13:12:24;;;;;;;2.37;1.70;;;18.80;1.00;;;;;;4912628;29;20483;-76
2023/04/04 13:15:01;;;;;;;3.37;1.67;;;17.20;1.00;;;;;;4914121;29;20558;-79
2023/04/04 13:17:43;;;;;;;2.30;1.20;;;15.50;1.00;;;;;;4910999;29;21305;-78
2023/04/04 13:20:10;;;;;;;4.10;2.37;;;14.30;1.00;;;;;;4909825;28;20479;-78